Time;durP1;ratioP1;P1;durP2;ratioP2;P2;SDS_P1;SDS_P2;PMS_P1;PMS_P2;Temp;Humidity;BMP_temperature;BMP_pressure;BME280_temperature;BME280_humidity;BME280_pressure;Samples;Min_cycle;Max_cycle;Signal;HPM_P1;HPM_P2
2024/04/21 00:01:20;;;;;;;2.40;1.50;;;;;;;-147.86;100.00;25699.93;105825;1259;72768;-46
2024/04/21 00:03:48;;;;;;;2.60;1.60;;;;;;;-147.86;100.00;24392.26;105276;1254;824050;-48
2024/04/21 00:08:34;;;;;;;5.80;1.90;;;;;;;-147.86;100.00;15019.22;102507;1294;602770;-46
2024/04/21 00:11:01;;;;;;;6.50;1.60;;;;;;;-147.86;100.00;5100.62;105141;1277;59747;-48
2024/04/21 00:13:29;;;;;;;4.00;1.50;;;;;;;-147.86;100.00;7884.92;105205;1264;60130;-48
2024/04/21 00:15:55;;;;;;;1.70;1.20;;;;;;;-147.86;100.00;7669.90;105159;1264;72983;-46
2024/04/21 00:18:22;;;;;;;4.70;1.50;;;;;;;-147.86;100.00;6669.69;105160;1269;65377;-48
2024/04/21 00:20:49;;;;;;;11.40;1.80;;;;;;;-147.86;100.00;5232.30;105030;1263;221242;-45
2024/04/21 00:23:16;;;;;;;2.20;1.40;;;;;;;-147.86;100.00;3623.72;105232;1265;60910;-47
2024/04/21 00:25:43;;;;;;;7.40;1.50;;;;;;;-147.86;100.00;1657.04;105228;1264;60263;-46
2024/04/21 00:28:10;;;;;;;1.70;1.30;;;;;;;-147.86;100.00;-428.29;105198;1264;71847;-44
2024/04/21 00:30:37;;;;;;;4.20;1.30;;;;;;;-147.86;100.00;-2303.50;105218;1276;65486;-47
2024/04/21 00:33:04;;;;;;;2.80;1.60;;;;;;;-147.86;100.00;-4018.81;105169;1267;72479;-47
2024/04/21 00:35:31;;;;;;;4.00;1.50;;;;;;;-147.86;100.00;-6079.80;105212;1267;61947;-46
2024/04/21 00:37:59;;;;;;;2.40;1.30;;;;;;;-147.86;100.00;-7722.70;105227;1263;60439;-45
2024/04/21 00:40:25;;;;;;;2.80;1.60;;;;;;;-147.86;100.00;-9369.14;105203;1267;73841;-47
2024/04/21 00:42:58;;;;;;;3.10;1.50;;;;;;;-147.86;100.00;-10902.51;105210;1266;65363;-47
2024/04/21 00:45:25;;;;;;;5.20;1.40;;;;;;;-147.86;100.00;-12573.83;105223;1267;72724;-45
2024/04/21 00:48:05;;;;;;;4.50;1.30;;;;;;;-147.86;100.00;-14228.22;105211;1266;61956;-48
2024/04/21 00:50:31;;;;;;;3.20;1.30;;;;;;;-147.86;100.00;-15350.81;105234;1266;60424;-46
2024/04/21 00:52:58;;;;;;;2.90;1.50;;;;;;;-147.86;100.00;-15791.26;105190;1266;73858;-48
2024/04/21 00:55:26;;;;;;;5.90;1.50;;;;;;;-147.86;100.00;-16454.18;105206;1266;65360;-46
2024/04/21 00:57:53;;;;;;;2.70;1.40;;;;;;;-147.86;100.00;-17142.80;105233;1264;72662;-46
2024/04/21 01:00:21;;;;;;;1.90;1.40;;;;;;;-147.86;100.00;-17606.18;105210;1267;61908;-46
2024/04/21 01:02:48;;;;;;;4.40;2.00;;;;;;;-147.86;100.00;-17609.17;105238;1270;60545;-44
2024/04/21 01:05:15;;;;;;;6.60;1.90;;;;;;;-147.86;100.00;-17609.17;105119;1269;73756;-44
2024/04/21 01:07:41;;;;;;;3.00;1.50;;;;;;;-147.86;100.00;-17609.17;105240;1267;65935;-49
2024/04/21 01:10:09;;;;;;;2.00;1.30;;;;;;;-147.86;100.00;-17609.17;105224;1270;72618;-45
2024/04/21 01:12:43;;;;;;;3.90;1.60;;;;;;;-147.86;100.00;-17609.17;105213;1264;61805;-49
2024/04/21 01:15:10;;;;;;;6.30;1.50;;;;;;;-147.86;100.00;-17609.17;105237;1269;60411;-48
2024/04/21 01:17:37;;;;;;;6.90;1.80;;;;;;;-147.86;100.00;-17609.17;105172;1270;73861;-47
2024/04/21 01:20:06;;;;;;;5.00;1.40;;;;;;;-147.86;100.00;-17609.17;105157;1269;65580;-43
2024/04/21 01:22:33;;;;;;;4.10;1.40;;;;;;;-147.86;100.00;-17609.17;105214;1264;70939;-49
2024/04/21 01:25:00;;;;;;;3.30;1.70;;;;;;;-147.86;100.00;-17609.17;105127;1268;60437;-48
2024/04/21 01:27:28;;;;;;;4.10;1.30;;;;;;;-147.86;100.00;-17609.17;104959;1264;60539;-47
2024/04/21 01:29:55;;;;;;;7.40;1.60;;;;;;;-147.86;100.00;-17609.17;104876;1269;73625;-47
2024/04/21 01:32:22;;;;;;;6.00;1.50;;;;;;;-147.86;100.00;-17609.17;105005;1264;65541;-49
2024/04/21 01:34:50;;;;;;;6.00;1.40;;;;;;;-147.86;100.00;-17609.17;105256;1267;72413;-48
2024/04/21 01:37:17;;;;;;;7.70;2.10;;;;;;;-147.86;100.00;-17609.17;105236;1269;61914;-49
2024/04/21 01:39:44;;;;;;;7.30;1.80;;;;;;;-147.86;100.00;-17609.17;105218;1264;60520;-51
2024/04/21 01:42:11;;;;;;;4.00;1.60;;;;;;;-147.86;100.00;-17609.17;105138;1264;72258;-51
2024/04/21 01:44:38;;;;;;;8.60;1.80;;;;;;;-147.86;100.00;-17609.17;105211;1264;65431;-44
2024/04/21 01:47:05;;;;;;;6.50;1.60;;;;;;;-147.86;100.00;-17609.17;105187;1268;72640;-45
2024/04/21 01:49:32;;;;;;;9.60;1.60;;;;;;;-147.86;100.00;-17609.17;105144;1269;61912;-44
2024/04/21 01:51:58;;;;;;;2.20;1.60;;;;;;;-147.86;100.00;-17609.17;105243;1267;60790;-46
2024/04/21 01:54:25;;;;;;;6.70;1.70;;;;;;;-147.86;100.00;-17609.17;105231;1267;73828;-47
2024/04/21 01:56:52;;;;;;;8.70;1.80;;;;;;;-147.86;100.00;-17609.17;105878;1257;65269;-45
2024/04/21 01:59:19;;;;;;;8.20;1.80;;;;;;;-147.86;100.00;-17609.17;105916;1252;72516;-46
2024/04/21 02:01:46;;;;;;;3.50;1.80;;;;;;;-147.86;100.00;-17609.17;105906;1254;62358;-46
2024/04/21 02:04:13;;;;;;;8.30;1.70;;;;;;;-147.86;100.00;-17609.17;105939;1254;60463;-44
2024/04/21 02:06:40;;;;;;;7.50;1.70;;;;;;;-147.86;100.00;-17609.17;105907;1256;73786;-46
2024/04/21 02:09:07;;;;;;;7.30;1.60;;;;;;;-147.86;100.00;-17609.17;105904;1254;65307;-43
2024/04/21 02:11:34;;;;;;;9.10;2.00;;;;;;;-147.86;100.00;-17609.17;105881;1254;71636;-45
2024/04/21 02:14:01;;;;;;;5.70;1.80;;;;;;;-147.86;100.00;-17609.17;105899;1254;60862;-47
2024/04/21 02:16:28;;;;;;;16.80;1.70;;;;;;;-147.86;100.00;-17609.17;105915;1253;60987;-46
2024/04/21 02:18:55;;;;;;;5.60;1.90;;;;;;;-147.86;100.00;-17609.17;105922;1256;73826;-47
2024/04/21 02:21:22;;;;;;;3.90;1.90;;;;;;;-147.86;100.00;-17609.17;105846;1254;65198;-45
2024/04/21 02:23:49;;;;;;;6.10;1.90;;;;;;;-147.86;100.00;-17609.17;105873;1255;72673;-46
2024/04/21 02:26:16;;;;;;;3.30;1.40;;;;;;;-147.86;100.00;-17609.17;105944;1256;61946;-47
2024/04/21 02:28:43;;;;;;;6.40;1.90;;;;;;;-147.86;100.00;-17609.17;105979;1254;60437;-46
2024/04/21 02:31:10;;;;;;;7.60;1.80;;;;;;;-147.86;100.00;-17609.17;105917;1257;73985;-45
2024/04/21 02:33:37;;;;;;;3.40;1.80;;;;;;;-147.86;100.00;-17609.17;105906;1254;65326;-45
2024/04/21 02:36:04;;;;;;;13.00;2.10;;;;;;;-147.86;100.00;-17609.17;105896;1254;72603;-46
2024/04/21 02:38:31;;;;;;;4.90;1.60;;;;;;;-147.86;100.00;-17609.17;105918;1257;60626;-47
2024/04/21 02:40:59;;;;;;;9.30;2.70;;;;;;;-147.86;100.00;-17609.17;105874;1252;60431;-47
2024/04/21 02:43:25;;;;;;;8.30;2.00;;;;;;;-147.86;100.00;-17609.17;105857;1256;73760;-44
2024/04/21 02:45:52;;;;;;;7.30;1.90;;;;;;;-147.86;100.00;-17609.17;105932;1254;64409;-50
2024/04/21 02:48:19;;;;;;;6.70;2.10;;;;;;;-147.86;100.00;-17609.17;105934;1253;72539;-48
2024/04/21 02:50:46;;;;;;;6.40;2.00;;;;;;;-147.86;100.00;-17609.17;105958;1257;61907;-45
2024/04/21 02:53:13;;;;;;;6.40;2.40;;;;;;;-147.86;100.00;-17609.17;105873;1255;60472;-47
2024/04/21 02:55:42;;;;;;;8.00;2.20;;;;;;;-147.86;100.00;-17609.17;105900;1256;73970;-50
2024/04/21 02:58:09;;;;;;;4.60;2.20;;;;;;;-147.86;100.00;-17609.17;105662;1256;64039;-44
2024/04/21 03:00:39;;;;;;;4.80;1.80;;;;;;;-147.86;100.00;-17609.17;105799;1256;72642;-49
2024/04/21 03:03:07;;;;;;;9.10;2.30;;;;;;;-147.86;100.00;-17609.17;105947;1254;61828;-47
2024/04/21 03:05:35;;;;;;;9.10;2.10;;;;;;;-147.86;100.00;-17609.17;105907;1254;60408;-49
2024/04/21 03:08:02;;;;;;;12.50;2.40;;;;;;;-147.86;100.00;-17609.17;105934;1257;72688;-45
2024/04/21 03:10:29;;;;;;;11.10;2.70;;;;;;;-147.86;100.00;-17609.17;105942;1257;65576;-47
2024/04/21 03:12:56;;;;;;;8.90;2.20;;;;;;;-147.86;100.00;-17609.17;105905;1258;72519;-46
2024/04/21 03:15:25;;;;;;;13.10;3.20;;;;;;;-147.86;100.00;-17609.17;105844;1253;61751;-45
2024/04/21 03:17:53;;;;;;;16.80;3.30;;;;;;;-147.86;100.00;-17609.17;105892;1254;60443;-47
2024/04/21 03:20:20;;;;;;;15.40;3.00;;;;;;;-147.86;100.00;-17609.17;105916;1254;73800;-45
2024/04/21 03:22:47;;;;;;;8.20;3.00;;;;;;;-147.86;100.00;-17609.17;105892;1256;65361;-46
2024/04/21 03:25:14;;;;;;;7.20;2.80;;;;;;;-147.86;100.00;-17609.17;105944;1257;72464;-50
2024/04/21 03:27:42;;;;;;;10.10;2.40;;;;;;;-147.86;100.00;-17609.17;105880;1256;60345;-49
2024/04/21 03:30:09;;;;;;;11.30;2.90;;;;;;;-147.86;100.00;-17609.17;105915;1252;60529;-45
2024/04/21 03:32:36;;;;;;;12.40;2.50;;;;;;;-147.86;100.00;-17609.17;105954;1252;72645;-46
2024/04/21 03:35:04;;;;;;;12.40;2.80;;;;;;;-147.86;100.00;-17609.17;105960;1256;65646;-47
2024/04/21 03:37:31;;;;;;;13.00;2.90;;;;;;;-147.86;100.00;-17609.17;105868;1257;72540;-46
2024/04/21 03:40:00;;;;;;;15.10;3.40;;;;;;;-147.86;100.00;-17609.17;105895;1254;61760;-47
2024/04/21 03:42:27;;;;;;;19.90;3.40;;;;;;;-147.86;100.00;-17609.17;105935;1254;60462;-48
2024/04/21 03:44:54;;;;;;;12.40;3.00;;;;;;;-147.86;100.00;-17609.17;105932;1257;73851;-48
2024/04/21 03:47:21;;;;;;;9.80;2.70;;;;;;;-147.86;100.00;-17609.17;105905;1256;64689;-48
2024/04/21 03:49:49;;;;;;;6.20;2.70;;;;;;;-147.86;100.00;-17609.17;105905;1256;72965;-46
2024/04/21 03:52:16;;;;;;;14.80;2.70;;;;;;;-147.86;100.00;-17609.17;105877;1254;61667;-43
2024/04/21 03:54:43;;;;;;;8.80;2.30;;;;;;;-147.86;100.00;-17609.17;105897;1254;60520;-47
2024/04/21 03:57:10;;;;;;;6.60;2.40;;;;;;;-147.86;100.00;-17609.17;105909;1254;73849;-46
2024/04/21 03:59:36;;;;;;;17.70;2.90;;;;;;;-147.86;100.00;-17609.17;105941;1256;65449;-44
2024/04/21 04:02:03;;;;;;;7.40;3.00;;;;;;;-147.86;100.00;-17609.17;105886;1254;71531;-47
2024/04/21 04:04:30;;;;;;;18.50;3.60;;;;;;;-147.86;100.00;-17609.17;105904;1257;61882;-46
2024/04/21 04:06:58;;;;;;;8.00;2.90;;;;;;;-147.86;100.00;-17609.17;105866;1252;60488;-46
2024/04/21 04:09:25;;;;;;;16.70;3.10;;;;;;;-147.86;100.00;-17609.17;105840;1257;73810;-45
2024/04/21 04:11:52;;;;;;;15.70;3.00;;;;;;;-147.86;100.00;-17609.17;105919;1257;65321;-46
2024/04/21 04:14:19;;;;;;;8.80;2.30;;;;;;;-147.86;100.00;-17609.17;105897;1257;72544;-46
2024/04/21 04:16:46;;;;;;;10.80;2.50;;;;;;;-147.86;100.00;-17609.17;105908;1253;61677;-46
2024/04/21 04:19:12;;;;;;;7.50;2.60;;;;;;;-147.86;100.00;-17609.17;105922;1254;61320;-47
2024/04/21 04:21:39;;;;;;;14.00;3.40;;;;;;;-147.86;100.00;-17609.17;105937;1253;74627;-49
2024/04/21 04:24:07;;;;;;;22.20;3.70;;;;;;;-147.86;100.00;-17609.17;105912;1254;65419;-48
2024/04/21 04:26:34;;;;;;;9.80;3.20;;;;;;;-147.86;100.00;-17609.17;105891;1257;71343;-47
2024/04/21 04:29:01;;;;;;;15.70;2.80;;;;;;;-147.86;100.00;-17609.17;105930;1254;61824;-45
2024/04/21 04:31:28;;;;;;;21.60;4.00;;;;;;;-147.86;100.00;-17609.17;105918;1254;61420;-47
2024/04/21 04:33:55;;;;;;;18.80;4.10;;;;;;;-147.86;100.00;-17609.17;105910;1252;74509;-46
2024/04/21 04:36:22;;;;;;;23.50;3.40;;;;;;;-147.86;100.00;-17609.17;105950;1256;64722;-47
2024/04/21 04:38:49;;;;;;;22.90;4.20;;;;;;;-147.86;100.00;-17609.17;105911;1256;72604;-45
2024/04/21 04:41:16;;;;;;;18.00;4.80;;;;;;;-147.86;100.00;-17609.17;105915;1257;61148;-46
2024/04/21 04:43:43;;;;;;;17.50;4.20;;;;;;;-147.86;100.00;-17609.17;105896;1254;61336;-45
2024/04/21 04:46:10;;;;;;;9.80;3.30;;;;;;;-147.86;100.00;-17609.17;105934;1255;75679;-47
2024/04/21 04:48:37;;;;;;;14.60;3.50;;;;;;;-147.86;100.00;-17609.17;105893;1254;65546;-46
2024/04/21 04:51:04;;;;;;;12.00;3.40;;;;;;;-147.86;100.00;-17609.17;105875;1254;72617;-45
2024/04/21 04:53:31;;;;;;;12.60;3.70;;;;;;;-147.86;100.00;-17609.17;105922;1253;61219;-44
2024/04/21 04:55:58;;;;;;;20.40;4.00;;;;;;;-147.86;100.00;-17609.17;105877;1254;61330;-45
2024/04/21 04:58:24;;;;;;;15.90;3.50;;;;;;;-147.86;100.00;-17609.17;105918;1254;74717;-50
2024/04/21 05:00:51;;;;;;;15.60;3.40;;;;;;;-147.86;100.00;-17609.17;105911;1254;65364;-45
2024/04/21 05:03:18;;;;;;;21.40;3.80;;;;;;;-147.86;100.00;-17609.17;105969;1257;71416;-47
2024/04/21 05:05:45;;;;;;;14.80;4.00;;;;;;;-147.86;100.00;-17609.17;105923;1252;61464;-47
2024/04/21 05:08:13;;;;;;;11.30;3.20;;;;;;;-147.86;100.00;-17609.17;105911;1254;61340;-47
2024/04/21 05:10:40;;;;;;;12.10;3.80;;;;;;;-147.86;100.00;-17609.17;105931;1256;74381;-44
2024/04/21 05:13:07;;;;;;;15.40;3.60;;;;;;;-147.86;100.00;-17609.17;105873;1254;65491;-47
2024/04/21 05:15:34;;;;;;;11.00;3.80;;;;;;;-147.86;100.00;-17609.17;105918;1256;73564;-46
2024/04/21 05:18:01;;;;;;;22.50;4.40;;;;;;;-147.86;100.00;-17609.17;105930;1254;61241;-47
2024/04/21 05:20:29;;;;;;;12.50;3.40;;;;;;;-147.86;100.00;-17609.17;105944;1254;61649;-46
2024/04/21 05:22:56;;;;;;;13.10;3.70;;;;;;;-147.86;100.00;-17609.17;105875;1257;74617;-47
2024/04/21 05:25:23;;;;;;;16.00;3.40;;;;;;;-147.86;100.00;-17609.17;105931;1254;65299;-46
2024/04/21 05:27:50;;;;;;;14.50;3.60;;;;;;;-147.86;100.00;-17609.17;105906;1254;72603;-46
2024/04/21 05:30:17;;;;;;;15.60;3.80;;;;;;;-147.86;100.00;-17609.17;105912;1256;61182;-44
2024/04/21 05:32:44;;;;;;;12.30;3.80;;;;;;;-147.86;100.00;-17609.17;105978;1254;61253;-47
2024/04/21 05:35:13;;;;;;;13.40;3.70;;;;;;;-147.86;100.00;-17609.17;105858;1256;74650;-48
2024/04/21 05:37:41;;;;;;;21.60;4.30;;;;;;;-147.86;100.00;-17609.17;105932;1257;65381;-48
2024/04/21 05:40:09;;;;;;;12.00;3.80;;;;;;;-147.86;100.00;-17609.17;105915;1255;72586;-44
2024/04/21 05:42:37;;;;;;;11.30;4.20;;;;;;;-147.86;100.00;-17609.17;105915;1254;61763;-47
2024/04/21 05:45:05;;;;;;;14.70;4.80;;;;;;;-147.86;100.00;-17609.17;105935;1254;61324;-46
2024/04/21 05:47:33;;;;;;;14.60;5.00;;;;;;;-147.86;100.00;-17609.17;105880;1256;74546;-45
2024/04/21 05:50:00;;;;;;;13.90;5.10;;;;;;;-147.86;100.00;-17609.17;105932;1254;65356;-48
2024/04/21 05:52:28;;;;;;;18.00;6.10;;;;;;;-147.86;100.00;-17609.17;105937;1256;72564;-47
2024/04/21 05:54:54;;;;;;;15.40;7.10;;;;;;;-147.86;100.00;-17609.17;105925;1254;61309;-48
2024/04/21 05:57:21;;;;;;;24.70;7.30;;;;;;;-147.86;100.00;-17609.17;105926;1253;61446;-48
2024/04/21 05:59:48;;;;;;;23.40;8.70;;;;;;;-147.86;100.00;-17609.17;105915;1256;76029;-50
2024/04/21 06:02:15;;;;;;;22.50;7.60;;;;;;;-147.86;100.00;-17609.17;105907;1252;65360;-46
2024/04/21 06:04:42;;;;;;;20.80;8.60;;;;;;;-147.86;100.00;-17609.17;105872;1256;72630;-46
2024/04/21 06:07:09;;;;;;;32.40;9.60;;;;;;;-147.86;100.00;-17609.17;105904;1254;61226;-45
2024/04/21 06:09:37;;;;;;;23.20;10.90;;;;;;;-147.86;100.00;-17609.17;105896;1254;61228;-46
2024/04/21 06:12:04;;;;;;;17.80;10.10;;;;;;;-147.86;100.00;-17609.17;105955;1253;74586;-46
2024/04/21 06:14:31;;;;;;;19.00;8.90;;;;;;;-147.86;100.00;-17609.17;105916;1254;65383;-46
2024/04/21 06:16:58;;;;;;;20.60;10.50;;;;;;;-147.86;100.00;-17609.17;105798;1254;72578;-45
2024/04/21 06:19:25;;;;;;;19.10;8.40;;;;;;;-147.86;100.00;-17609.17;105893;1254;61326;-46
2024/04/21 06:21:52;;;;;;;17.40;7.70;;;;;;;-147.86;100.00;-17609.17;105889;1252;61279;-45
2024/04/21 06:24:19;;;;;;;12.00;6.30;;;;;;;-147.86;100.00;-17609.17;105916;1256;74577;-46
2024/04/21 06:26:47;;;;;;;19.20;7.70;;;;;;;-147.86;100.00;-17609.17;105817;1256;64321;-46
2024/04/21 06:29:16;;;;;;;12.10;7.10;;;;;;;-147.86;100.00;-17609.17;105725;1256;71422;-47
2024/04/21 06:31:43;;;;;;;15.90;6.20;;;;;;;-147.86;100.00;-17609.17;105887;1253;61935;-48
2024/04/21 06:34:10;;;;;;;11.50;6.10;;;;;;;-147.86;100.00;-17609.17;105975;1254;61234;-51
2024/04/21 06:36:37;;;;;;;12.40;5.30;;;;;;;-147.86;100.00;-17609.17;105878;1256;74589;-49
2024/04/21 06:39:03;;;;;;;13.50;4.80;;;;;;;-147.86;100.00;-17609.17;105895;1256;65432;-47
2024/04/21 06:41:30;;;;;;;10.70;3.80;;;;;;;-147.86;100.00;-17609.17;105919;1254;72493;-43
2024/04/21 06:43:57;;;;;;;10.50;3.70;;;;;;;-147.86;100.00;-17609.17;105931;1254;61186;-46
2024/04/21 06:46:24;;;;;;;17.40;3.20;;;;;;;-147.86;100.00;-17609.17;105942;1253;61192;-45
2024/04/21 06:48:51;;;;;;;7.50;3.50;;;;;;;-147.86;100.00;-17609.17;105950;1256;74586;-46
2024/04/21 06:51:18;;;;;;;12.70;3.00;;;;;;;-147.86;100.00;-17609.17;105941;1253;65487;-45
2024/04/21 06:53:46;;;;;;;10.80;2.70;;;;;;;-147.86;100.00;-17609.17;105895;1254;72391;-46
2024/04/21 06:56:12;;;;;;;8.60;3.20;;;;;;;-147.86;100.00;-17609.17;105941;1256;61245;-43
2024/04/21 06:58:40;;;;;;;7.20;2.30;;;;;;;-147.86;100.00;-17609.17;105907;1254;61212;-46
2024/04/21 07:01:07;;;;;;;3.40;1.70;;;;;;;-147.86;100.00;-17609.17;105887;1256;75133;-46
2024/04/21 07:03:34;;;;;;;4.30;1.80;;;;;;;-147.86;100.00;-17609.17;105821;1255;64191;-49
2024/04/21 07:06:02;;;;;;;2.40;1.90;;;;;;;-147.86;100.00;-17609.17;105746;1254;72679;-49
2024/04/21 07:08:29;;;;;;;2.20;1.50;;;;;;;-147.86;100.00;-17609.17;105673;1254;61141;-49
2024/04/21 07:10:56;;;;;;;4.40;1.70;;;;;;;-147.86;100.00;-17609.17;105688;1253;61235;-45
2024/04/21 07:13:27;;;;;;;5.80;2.00;;;;;;;-147.86;100.00;-17609.17;105938;1256;73707;-51
2024/04/21 07:15:54;;;;;;;6.70;1.60;;;;;;;-147.86;100.00;-17609.17;105922;1256;65321;-50
2024/04/21 07:18:21;;;;;;;3.60;1.40;;;;;;;-147.86;100.00;-17609.17;105886;1254;72601;-50
2024/04/21 07:20:48;;;;;;;3.20;1.60;;;;;;;-147.86;100.00;-17609.17;105927;1256;61125;-46
2024/04/21 07:23:15;;;;;;;2.30;1.40;;;;;;;-147.86;100.00;-17609.17;105880;1254;61315;-45
2024/04/21 07:25:43;;;;;;;3.90;1.50;;;;;;;-147.86;100.00;-17609.17;105942;1255;75253;-47
2024/04/21 07:28:10;;;;;;;3.90;1.50;;;;;;;-147.86;100.00;-17609.17;105878;1253;65596;-47
2024/04/21 07:30:37;;;;;;;5.20;1.90;;;;;;;-147.86;100.00;-17609.17;105870;1253;72138;-45
2024/04/21 07:33:04;;;;;;;3.00;1.60;;;;;;;-147.86;100.00;-17609.17;105944;1253;61151;-47
2024/04/21 07:35:31;;;;;;;2.80;1.30;;;;;;;-147.86;100.00;-17609.17;105871;1252;61237;-45
2024/04/21 07:37:58;;;;;;;2.50;1.40;;;;;;;-147.86;100.00;-17609.17;105870;1253;74769;-47
2024/04/21 07:40:27;;;;;;;4.30;1.30;;;;;;;-147.86;100.00;-17609.17;105873;1256;66001;-44
2024/04/21 07:42:54;;;;;;;3.80;1.50;;;;;;;-147.86;100.00;-17609.17;105882;1256;72594;-44
2024/04/21 07:45:21;;;;;;;6.60;2.00;;;;;;;-147.86;100.00;-17609.17;105924;1254;61125;-47
2024/04/21 07:47:48;;;;;;;6.60;1.50;;;;;;;-147.86;100.00;-17609.17;105906;1253;61202;-44
2024/04/21 07:50:16;;;;;;;6.50;1.60;;;;;;;-147.86;100.00;-17609.17;105943;1252;75089;-47
2024/04/21 07:52:43;;;;;;;4.40;1.70;;;;;;;-147.86;100.00;-16818.68;105936;1256;65900;-46
2024/04/21 07:55:10;;;;;;;13.10;1.80;;;;;;;-147.86;100.00;-16176.49;105893;1254;72540;-48
2024/04/21 07:57:37;;;;;;;5.30;1.60;;;;;;;-147.86;100.00;-14596.50;105938;1253;61211;-45
2024/04/21 08:00:06;;;;;;;4.30;1.20;;;;;;;-147.86;100.00;-10149.70;105911;1254;61262;-47
2024/04/21 08:02:38;;;;;;;7.90;1.50;;;;;;;-147.86;100.00;-8666.37;105890;1255;74800;-47
2024/04/21 08:05:05;;;;;;;8.10;1.80;;;;;;;-147.86;100.00;-7429.42;105917;1256;65058;-47
2024/04/21 08:07:32;;;;;;;2.50;1.10;;;;;;;-147.86;100.00;3917.83;105877;1254;73306;-45
2024/04/21 08:10:00;;;;;;;4.70;1.70;;;;;;;-147.86;99.19;16242.98;105895;1254;61211;-47
2024/04/21 08:12:27;;;;;;;2.70;1.30;;;;;;;-147.86;99.17;22977.68;105957;1253;61279;-47
2024/04/21 08:14:54;;;;;;;6.40;1.30;;;;;;;-147.86;97.90;28568.49;105937;1254;73743;-44
2024/04/21 08:17:21;;;;;;;5.40;1.30;;;;;;;-147.86;94.67;42345.02;105908;1257;66126;-46
2024/04/21 08:19:48;;;;;;;7.50;1.50;;;;;;;-147.86;95.39;44762.66;105877;1254;72995;-46
2024/04/21 08:22:15;;;;;;;10.70;1.00;;;;;;;-147.86;95.84;45527.38;105934;1255;61333;-45
2024/04/21 08:24:42;;;;;;;5.10;1.20;;;;;;;-147.86;95.57;45864.35;105911;1253;61307;-48
2024/04/21 08:27:09;;;;;;;4.70;1.40;;;;;;;-147.86;94.92;46766.07;105935;1254;75005;-47
2024/04/21 08:29:37;;;;;;;5.50;1.40;;;;;;;-147.86;98.65;46670.45;105893;1256;65796;-48
2024/04/21 08:32:03;;;;;;;2.60;1.20;;;;;;;-147.86;98.83;45971.32;105929;1254;72576;-47
2024/04/21 08:34:30;;;;;;;4.40;1.20;;;;;;;-147.86;97.57;46182.14;105922;1256;61221;-48
2024/04/21 08:36:57;;;;;;;5.40;1.60;;;;;;;-147.86;97.95;46227.21;105921;1253;61339;-48
2024/04/21 08:39:24;;;;;;;5.80;1.10;;;;;;;-147.86;98.50;46353.00;105965;1255;75135;-50
2024/04/21 08:41:52;;;;;;;5.80;1.40;;;;;;;-147.86;97.27;46573.25;105919;1254;64850;-47
2024/04/21 08:44:18;;;;;;;4.40;1.40;;;;;;;-147.86;95.34;47135.29;105849;1254;73846;-48
2024/04/21 08:46:45;;;;;;;6.20;1.50;;;;;;;-147.86;96.75;47653.89;105903;1256;61157;-48
2024/04/21 08:49:14;;;;;;;2.90;1.40;;;;;;;-147.86;96.84;47698.98;105755;1254;61202;-45
2024/04/21 08:51:41;;;;;;;2.50;1.20;;;;;;;-147.86;99.22;47718.58;105664;1258;73900;-48
2024/04/21 08:54:08;;;;;;;6.00;1.90;;;;;;;-147.86;100.00;46638.71;105770;1256;65874;-47
2024/04/21 08:56:35;;;;;;;11.10;1.70;;;;;;;-147.86;100.00;45821.64;105887;1252;72844;-46
2024/04/21 08:59:02;;;;;;;5.00;1.60;;;;;;;-147.86;100.00;43594.80;105796;1254;61780;-47
2024/04/21 09:01:29;;;;;;;8.30;1.70;;;;;;;-147.86;100.00;39535.86;105884;1254;61716;-47
2024/04/21 09:03:56;;;;;;;4.90;1.70;;;;;;;-147.86;100.00;31206.14;105787;1254;73613;-48
2024/04/21 09:06:25;;;;;;;7.70;1.70;;;;;;;-147.86;100.00;14800.13;105891;1254;64927;-47
2024/04/21 09:08:53;;;;;;;3.90;1.60;;;;;;;-147.86;100.00;6050.76;105897;1254;74079;-46
2024/04/21 09:11:19;;;;;;;5.80;2.00;;;;;;;-147.86;100.00;2825.09;105901;1254;61119;-46
2024/04/21 09:13:47;;;;;;;9.10;2.10;;;;;;;-147.86;100.00;-496.88;105894;1252;61276;-46
2024/04/21 09:16:13;;;;;;;5.70;2.20;;;;;;;-147.86;100.00;-3073.40;105925;1256;75003;-45
2024/04/21 09:18:41;;;;;;;8.60;3.00;;;;;;;-147.86;100.00;-3172.65;105964;1256;65515;-46
2024/04/21 09:21:08;;;;;;;14.20;2.30;;;;;;;-147.86;100.00;-8220.69;105937;1253;72871;-47
2024/04/21 09:23:35;;;;;;;10.60;2.20;;;;;;;-147.86;100.00;-12966.66;105880;1253;63356;-48
2024/04/21 09:26:02;;;;;;;12.00;3.80;;;;;;;-147.86;100.00;-9258.89;105935;1254;61237;-47
2024/04/21 09:28:30;;;;;;;8.80;4.30;;;;;;;-147.86;100.00;5260.05;105879;1256;74999;-49
2024/04/21 09:30:57;;;;;;;9.70;2.90;;;;;;;-147.86;98.76;33647.05;105976;1256;66164;-49
2024/04/21 09:33:25;;;;;;;6.60;3.20;;;;;;;-147.86;98.69;42815.10;105796;1254;74201;-46
2024/04/21 09:35:56;;;;;;;9.70;2.90;;;;;;;-147.86;99.56;44058.38;105787;1254;61247;-47
2024/04/21 09:38:23;;;;;;;7.30;2.40;;;;;;;-147.86;100.00;39573.54;105932;1253;61240;-46
2024/04/21 09:40:53;;;;;;;11.70;2.40;;;;;;;-147.86;100.00;20458.07;105941;1253;74785;-45
2024/04/21 09:43:21;;;;;;;10.70;2.60;;;;;;;-147.86;100.00;-6537.90;105614;1256;66085;-44
2024/04/21 09:45:50;;;;;;;11.80;1.90;;;;;;;-147.86;100.00;-15534.76;105924;1254;72810;-46
2024/04/21 09:48:20;;;;;;;8.60;2.00;;;;;;;-147.86;100.00;-17609.17;105913;1254;62369;-50
2024/04/21 09:50:47;;;;;;;7.20;1.70;;;;;;;-147.86;100.00;-17609.17;105744;1254;61194;-47
2024/04/21 09:53:14;;;;;;;9.40;2.40;;;;;;;-147.86;100.00;-9205.93;105850;1252;73759;-45
2024/04/21 09:55:45;;;;;;;11.10;2.50;;;;;;;-147.86;100.00;3668.66;105672;1252;65133;-47
2024/04/21 09:58:12;;;;;;;6.70;1.80;;;;;;;-147.86;100.00;2283.02;105902;1256;72742;-47
2024/04/21 10:00:42;;;;;;;16.60;2.00;;;;;;;-147.86;99.35;36392.45;105919;1253;61259;-47
2024/04/21 10:03:10;;;;;;;6.50;1.80;;;;;;;-147.86;100.00;40997.56;105930;1254;61413;-43
2024/04/21 10:05:37;;;;;;;5.20;1.80;;;;;;;-147.86;100.00;38945.04;105923;1252;75350;-45
2024/04/21 10:08:06;;;;;;;11.10;2.40;;;;;;;-147.86;100.00;34864.01;105926;1254;64687;-45
2024/04/21 10:10:36;;;;;;;4.50;1.80;;;;;;;-147.86;100.00;29897.82;105923;1254;74271;-45
2024/04/21 10:13:05;;;;;;;8.20;2.30;;;;;;;-147.86;100.00;39821.01;105941;1256;61294;-48
2024/04/21 10:15:32;;;;;;;7.30;2.00;;;;;;;-147.86;100.00;41006.96;105903;1254;61654;-45
2024/04/21 10:18:01;;;;;;;3.80;2.00;;;;;;;-147.86;100.00;40648.52;105979;1256;75990;-49
2024/04/21 10:20:32;;;;;;;5.00;2.70;;;;;;;-147.86;100.00;36325.54;105941;1254;64626;-49
2024/04/21 10:23:00;;;;;;;8.40;2.80;;;;;;;-147.86;100.00;27573.63;105975;1254;72129;-46
2024/04/21 10:25:38;;;;;;;3.40;2.10;;;;;;;-147.86;100.00;21864.88;105923;1256;61333;-49
2024/04/21 10:28:12;;;;;;;4.70;2.20;;;;;;;-147.86;100.00;18533.34;105920;1253;61222;-46
2024/04/21 10:30:40;;;;;;;12.30;2.70;;;;;;;-147.86;100.00;11316.89;105907;1256;74858;-47
2024/04/21 10:33:10;;;;;;;11.10;1.90;;;;;;;-147.86;100.00;6348.76;105931;1256;66863;-46
2024/04/21 10:35:38;;;;;;;9.10;2.60;;;;;;;-147.86;100.00;13210.31;105949;1256;71544;-46
2024/04/21 10:38:12;;;;;;;6.40;2.30;;;;;;;-147.86;100.00;24537.05;105897;1256;61131;-47
2024/04/21 10:40:46;;;;;;;18.50;3.30;;;;;;;-147.86;100.00;16391.05;105956;1254;61256;-47
2024/04/21 10:43:15;;;;;;;14.10;3.50;;;;;;;-147.86;100.00;25276.76;105935;1254;76046;-44
2024/04/21 10:45:42;;;;;;;6.00;3.00;;;;;;;-147.86;100.00;24891.17;105936;1253;63384;-46
2024/04/21 10:48:09;;;;;;;13.30;2.80;;;;;;;-147.86;100.00;33853.52;105748;1257;72284;-46
2024/04/21 10:50:37;;;;;;;10.50;2.90;;;;;;;-147.86;100.00;34375.38;105900;1256;61152;-44
2024/04/21 10:53:05;;;;;;;6.20;2.30;;;;;;;-147.86;100.00;15081.49;105918;1254;61278;-45
2024/04/21 10:55:32;;;;;;;6.30;2.30;;;;;;;-147.86;100.00;5455.07;105893;1253;75058;-48
2024/04/21 10:58:00;;;;;;;10.30;2.20;;;;;;;-147.86;100.00;6795.71;105914;1256;65164;-47